sensor_id;sensor_type;location;lat;lon;timestamp;P1;durP1;ratioP1;P2;durP2;ratioP2
23494;SDS011;26107;50.832;2.950;2023-12-22T00:01:56;19.98;;;2.92;;
23494;SDS011;26107;50.832;2.950;2023-12-22T00:16:57;22.65;;;4.00;;
23494;SDS011;26107;50.832;2.950;2023-12-22T00:31:58;17.38;;;3.75;;
23494;SDS011;26107;50.832;2.950;2023-12-22T00:46:58;16.55;;;3.13;;
23494;SDS011;26107;50.832;2.950;2023-12-22T01:01:59;14.48;;;2.83;;
23494;SDS011;26107;50.832;2.950;2023-12-22T01:17:00;15.93;;;2.78;;
23494;SDS011;26107;50.832;2.950;2023-12-22T01:32:03;16.13;;;3.25;;
23494;SDS011;26107;50.832;2.950;2023-12-22T01:47:05;19.33;;;3.22;;
23494;SDS011;26107;50.832;2.950;2023-12-22T02:02:05;13.93;;;2.75;;
23494;SDS011;26107;50.832;2.950;2023-12-22T02:32:53;15.63;;;3.55;;
23494;SDS011;26107;50.832;2.950;2023-12-22T02:47:59;16.98;;;3.10;;
23494;SDS011;26107;50.832;2.950;2023-12-22T03:02:59;15.52;;;3.90;;
23494;SDS011;26107;50.832;2.950;2023-12-22T03:18:02;18.48;;;3.45;;
23494;SDS011;26107;50.832;2.950;2023-12-22T03:33:06;17.63;;;3.53;;
23494;SDS011;26107;50.832;2.950;2023-12-22T03:48:07;20.02;;;4.40;;
23494;SDS011;26107;50.832;2.950;2023-12-22T04:03:07;14.00;;;4.90;;
23494;SDS011;26107;50.832;2.950;2023-12-22T04:18:10;10.85;;;3.00;;
23494;SDS011;26107;50.832;2.950;2023-12-22T04:33:13;17.08;;;3.45;;
23494;SDS011;26107;50.832;2.950;2023-12-22T04:48:14;7.03;;;2.10;;
23494;SDS011;26107;50.832;2.950;2023-12-22T05:03:14;6.45;;;1.80;;
23494;SDS011;26107;50.832;2.950;2023-12-22T05:18:15;7.32;;;1.50;;
23494;SDS011;26107;50.832;2.950;2023-12-22T05:33:16;6.03;;;1.30;;
23494;SDS011;26107;50.832;2.950;2023-12-22T05:48:18;4.20;;;1.08;;
23494;SDS011;26107;50.832;2.950;2023-12-22T06:03:21;6.13;;;1.20;;
23494;SDS011;26107;50.832;2.950;2023-12-22T06:18:25;3.80;;;0.95;;
23494;SDS011;26107;50.832;2.950;2023-12-22T06:33:28;8.45;;;1.92;;
23494;SDS011;26107;50.832;2.950;2023-12-22T06:48:31;5.40;;;1.20;;
23494;SDS011;26107;50.832;2.950;2023-12-22T07:03:37;2.78;;;1.33;;
23494;SDS011;26107;50.832;2.950;2023-12-22T07:18:38;4.40;;;1.20;;
23494;SDS011;26107;50.832;2.950;2023-12-22T07:33:41;9.30;;;1.15;;
23494;SDS011;26107;50.832;2.950;2023-12-22T07:48:41;4.07;;;0.98;;
23494;SDS011;26107;50.832;2.950;2023-12-22T08:03:42;5.13;;;1.00;;
23494;SDS011;26107;50.832;2.950;2023-12-22T08:18:43;4.22;;;1.00;;
23494;SDS011;26107;50.832;2.950;2023-12-22T08:33:43;1.08;;;0.73;;
23494;SDS011;26107;50.832;2.950;2023-12-22T08:48:45;4.68;;;1.23;;
23494;SDS011;26107;50.832;2.950;2023-12-22T09:03:48;1.98;;;0.75;;
23494;SDS011;26107;50.832;2.950;2023-12-22T09:18:49;2.58;;;0.70;;
23494;SDS011;26107;50.832;2.950;2023-12-22T09:33:54;6.90;;;1.05;;
23494;SDS011;26107;50.832;2.950;2023-12-22T09:48:57;1.63;;;0.82;;
23494;SDS011;26107;50.832;2.950;2023-12-22T10:03:58;3.90;;;0.85;;
23494;SDS011;26107;50.832;2.950;2023-12-22T10:18:59;3.00;;;0.70;;
23494;SDS011;26107;50.832;2.950;2023-12-22T10:34:00;3.08;;;0.75;;
23494;SDS011;26107;50.832;2.950;2023-12-22T10:49:01;3.80;;;0.82;;
23494;SDS011;26107;50.832;2.950;2023-12-22T11:04:08;2.65;;;0.70;;
23494;SDS011;26107;50.832;2.950;2023-12-22T11:19:14;2.77;;;0.70;;
23494;SDS011;26107;50.832;2.950;2023-12-22T11:34:15;0.82;;;0.40;;
23494;SDS011;26107;50.832;2.950;2023-12-22T11:49:18;2.10;;;0.50;;
23494;SDS011;26107;50.832;2.950;2023-12-22T12:04:19;3.00;;;0.65;;
23494;SDS011;26107;50.832;2.950;2023-12-22T12:19:21;2.90;;;0.60;;
23494;SDS011;26107;50.832;2.950;2023-12-22T12:34:22;1.63;;;0.60;;
23494;SDS011;26107;50.832;2.950;2023-12-22T12:49:23;2.38;;;0.80;;
23494;SDS011;26107;50.832;2.950;2023-12-22T13:04:41;1.42;;;0.65;;
23494;SDS011;26107;50.832;2.950;2023-12-22T13:19:42;3.92;;;0.63;;
23494;SDS011;26107;50.832;2.950;2023-12-22T13:34:53;2.03;;;0.88;;
23494;SDS011;26107;50.832;2.950;2023-12-22T13:49:54;1.77;;;0.82;;
23494;SDS011;26107;50.832;2.950;2023-12-22T14:04:55;4.35;;;1.25;;
23494;SDS011;26107;50.832;2.950;2023-12-22T14:19:56;3.90;;;0.98;;
23494;SDS011;26107;50.832;2.950;2023-12-22T14:34:56;5.18;;;1.20;;
23494;SDS011;26107;50.832;2.950;2023-12-22T14:50:01;8.48;;;1.58;;
23494;SDS011;26107;50.832;2.950;2023-12-22T15:05:04;4.28;;;1.67;;
23494;SDS011;26107;50.832;2.950;2023-12-22T15:20:05;12.02;;;1.40;;
23494;SDS011;26107;50.832;2.950;2023-12-22T15:35:08;6.65;;;1.50;;
23494;SDS011;26107;50.832;2.950;2023-12-22T15:50:09;2.63;;;1.33;;
23494;SDS011;26107;50.832;2.950;2023-12-22T16:05:12;4.82;;;1.83;;
23494;SDS011;26107;50.832;2.950;2023-12-22T16:20:14;4.82;;;1.30;;
23494;SDS011;26107;50.832;2.950;2023-12-22T16:35:15;3.55;;;1.10;;
23494;SDS011;26107;50.832;2.950;2023-12-22T16:50:16;5.32;;;1.20;;
23494;SDS011;26107;50.832;2.950;2023-12-22T17:05:17;5.40;;;1.30;;
23494;SDS011;26107;50.832;2.950;2023-12-22T17:20:19;4.30;;;1.02;;
23494;SDS011;26107;50.832;2.950;2023-12-22T17:35:21;6.50;;;1.20;;
23494;SDS011;26107;50.832;2.950;2023-12-22T17:50:22;14.25;;;2.45;;
23494;SDS011;26107;50.832;2.950;2023-12-22T18:05:23;5.93;;;1.38;;
23494;SDS011;26107;50.832;2.950;2023-12-22T18:20:25;10.45;;;2.10;;
23494;SDS011;26107;50.832;2.950;2023-12-22T18:35:26;9.68;;;2.17;;
23494;SDS011;26107;50.832;2.950;2023-12-22T18:50:27;6.80;;;1.77;;
23494;SDS011;26107;50.832;2.950;2023-12-22T19:05:27;5.70;;;1.60;;
23494;SDS011;26107;50.832;2.950;2023-12-22T19:20:30;4.80;;;1.02;;
23494;SDS011;26107;50.832;2.950;2023-12-22T19:35:32;4.53;;;1.77;;
23494;SDS011;26107;50.832;2.950;2023-12-22T19:50:35;5.50;;;1.48;;
23494;SDS011;26107;50.832;2.950;2023-12-22T20:05:36;11.75;;;2.00;;
23494;SDS011;26107;50.832;2.950;2023-12-22T20:20:41;7.97;;;1.90;;
23494;SDS011;26107;50.832;2.950;2023-12-22T20:35:44;7.07;;;1.60;;
23494;SDS011;26107;50.832;2.950;2023-12-22T20:50:49;9.82;;;1.55;;
23494;SDS011;26107;50.832;2.950;2023-12-22T21:05:50;7.70;;;2.00;;
23494;SDS011;26107;50.832;2.950;2023-12-22T21:20:53;7.20;;;1.55;;
23494;SDS011;26107;50.832;2.950;2023-12-22T21:35:54;10.13;;;1.73;;
23494;SDS011;26107;50.832;2.950;2023-12-22T21:50:55;14.50;;;1.77;;
23494;SDS011;26107;50.832;2.950;2023-12-22T22:05:58;5.82;;;1.35;;
23494;SDS011;26107;50.832;2.950;2023-12-22T22:20:59;8.65;;;1.77;;
23494;SDS011;26107;50.832;2.950;2023-12-22T22:36:00;9.77;;;3.15;;
23494;SDS011;26107;50.832;2.950;2023-12-22T22:51:01;8.25;;;1.90;;
23494;SDS011;26107;50.832;2.950;2023-12-22T23:06:05;5.85;;;2.40;;
23494;SDS011;26107;50.832;2.950;2023-12-22T23:21:06;8.77;;;1.83;;
23494;SDS011;26107;50.832;2.950;2023-12-22T23:36:07;6.13;;;1.65;;
23494;SDS011;26107;50.832;2.950;2023-12-22T23:51:11;10.13;;;1.90;;
